Time;durP1;ratioP1;P1;durP2;ratioP2;P2;SDS_P1;SDS_P2;PMS_P1;PMS_P2;Temp;Humidity;BMP_temperature;BMP_pressure;BME280_temperature;BME280_humidity;BME280_pressure;Samples;Min_cycle;Max_cycle;Signal;HPM_P1;HPM_P2
2021/01/13 00:00:56;;;;;;;72.65;34.00;;;-0.40;91.90;;;;;;5128291;27;20027;-67
2021/01/13 00:03:22;;;;;;;;;;;-0.40;91.90;;;;;;5128727;27;20035;-66
2021/01/13 00:05:47;;;;;;;64.45;32.38;;;-0.40;92.00;;;;;;5128776;27;19926;-66
2021/01/13 00:08:13;;;;;;;;;;;-0.40;92.10;;;;;;5129245;27;20049;-65
2021/01/13 00:10:38;;;;;;;72.82;35.25;;;-0.40;92.20;;;;;;5128414;27;19994;-65
2021/01/13 00:13:04;;;;;;;;;;;-0.40;92.10;;;;;;5110590;27;20387;-66
2021/01/13 00:15:30;;;;;;;88.43;40.53;;;-0.40;92.10;;;;;;5128213;27;19907;-66
2021/01/13 00:17:55;;;;;;;;;;;-0.50;92.20;;;;;;5128810;27;20027;-66
2021/01/13 00:20:21;;;;;;;73.15;35.35;;;-0.40;92.20;;;;;;5128085;27;19907;-66
2021/01/13 00:22:47;;;;;;;;;;;-0.40;92.10;;;;;;5129072;27;20148;-66
2021/01/13 00:25:14;;;;;;;75.38;36.35;;;-0.40;92.10;;;;;;5128415;27;19945;-66
2021/01/13 00:27:39;;;;;;;87.05;39.40;;;-0.40;92.10;;;;;;5128013;27;20030;-65
2021/01/13 00:30:05;;;;;;;;;;;-0.50;92.00;;;;;;5128581;27;20031;-66
2021/01/13 00:32:31;;;;;;;84.05;41.03;;;-0.50;92.00;;;;;;5128365;27;20264;-66
2021/01/13 00:34:57;;;;;;;85.35;42.75;;;-0.50;92.00;;;;;;5128188;27;20035;-65
2021/01/13 00:37:23;;;;;;;80.80;39.60;;;-0.50;92.00;;;;;;5128307;27;20019;-64
2021/01/13 00:39:49;;;;;;;;;;;-0.50;92.10;;;;;;5128540;27;20027;-64
2021/01/13 00:42:14;;;;;;;94.10;44.25;;;-0.50;92.10;;;;;;5127686;27;19904;-66
2021/01/13 00:44:40;;;;;;;;;;;-0.50;92.00;;;;;;5127942;27;20050;-66
2021/01/13 00:47:05;;;;;;;106.65;48.03;;;-0.50;92.00;;;;;;5108766;27;19918;-65
2021/01/13 00:49:31;;;;;;;;;;;-0.50;92.10;;;;;;5128264;27;20019;-66
2021/01/13 00:51:56;;;;;;;102.55;42.35;;;-0.50;92.10;;;;;;5127486;27;19907;-66
2021/01/13 00:54:22;;;;;;;;;;;-0.50;92.10;;;;;;5128382;27;20042;-67
2021/01/13 00:56:49;;;;;;;90.75;41.97;;;-0.50;92.10;;;;;;5127814;27;19977;-66
2021/01/13 00:59:15;;;;;;;92.50;45.85;;;-0.50;92.00;;;;;;5127019;27;20027;-66
2021/01/13 01:01:42;;;;;;;84.68;43.05;;;-0.50;91.80;;;;;;5127017;27;20491;-66
2021/01/13 01:04:09;;;;;;;87.40;41.08;;;-0.50;91.80;;;;;;5127431;27;20457;-66
2021/01/13 01:06:35;;;;;;;84.20;39.67;;;-0.50;91.70;;;;;;5127565;27;20062;-66
2021/01/13 01:09:02;;;;;;;78.22;40.00;;;-0.50;91.80;;;;;;5127769;27;20049;-66
2021/01/13 01:11:31;;;;;;;82.82;39.45;;;-0.50;91.80;;;;;;5127615;27;20462;-66
2021/01/13 01:13:57;;;;;;;79.35;39.60;;;-0.40;91.90;;;;;;5127364;27;20023;-65
2021/01/13 01:16:32;;;;;;;;;;;-0.40;91.90;;;;;;5127823;27;20019;-66
2021/01/13 01:18:59;;;;;;;78.85;38.33;;;-0.40;92.00;;;;;;5127122;27;19914;-66
2021/01/13 01:21:25;;;;;;;74.03;39.97;;;-0.40;91.90;;;;;;5127627;27;20031;-65
2021/01/13 01:23:51;;;;;;;82.68;40.65;;;-0.40;91.90;;;;;;5127414;27;20047;-66
2021/01/13 01:26:16;;;;;;;;;;;-0.40;91.90;;;;;;5127453;27;20039;-66
2021/01/13 01:28:42;;;;;;;76.03;36.03;;;-0.40;91.90;;;;;;5127477;27;20329;-66
2021/01/13 01:31:08;;;;;;;;;;;-0.40;91.90;;;;;;5127208;27;20030;-66
2021/01/13 01:33:33;;;;;;;85.82;38.45;;;-0.40;91.90;;;;;;5127390;27;20351;-67
2021/01/13 01:35:59;;;;;;;;;;;-0.40;91.90;;;;;;5127458;27;20061;-66
2021/01/13 01:38:24;;;;;;;86.43;40.92;;;-0.40;92.00;;;;;;5127278;28;19915;-67
2021/01/13 01:40:50;;;;;;;;;;;-0.40;92.00;;;;;;5127842;28;20024;-67
2021/01/13 01:43:17;;;;;;;85.45;40.72;;;-0.50;92.00;;;;;;5126500;28;19907;-65
2021/01/13 01:45:43;;;;;;;75.90;39.30;;;-0.40;92.10;;;;;;5126667;28;20121;-66
2021/01/13 01:48:20;;;;;;;;;;;-0.40;92.20;;;;;;5127283;28;20099;-66
2021/01/13 01:50:46;;;;;;;;;;;-0.40;92.20;;;;;;5127653;28;20024;-67
2021/01/13 01:53:21;;;;;;;82.70;39.53;;;-0.40;92.20;;;;;;5126959;28;20415;-66
2021/01/13 01:56:06;;;;;;;87.53;41.38;;;-0.40;91.90;;;;;;5127036;28;20062;-66
2021/01/13 01:58:32;;;;;;;86.55;41.20;;;-0.40;91.80;;;;;;5129742;27;20038;-66
2021/01/13 02:00:59;;;;;;;83.05;40.38;;;-0.40;91.80;;;;;;5130967;27;20115;-66
2021/01/13 02:03:43;;;;;;;100.63;48.22;;;-0.40;91.90;;;;;;5130822;27;20110;-66
2021/01/13 02:06:13;;;;;;;100.70;46.30;;;-0.40;91.90;;;;;;5130967;27;20027;-66
2021/01/13 02:08:40;;;;;;;101.97;47.85;;;-0.40;91.90;;;;;;5112802;27;20031;-66
2021/01/13 02:11:13;;;;;;;102.88;48.95;;;-0.40;92.00;;;;;;5130604;27;20055;-66
2021/01/13 02:13:39;;;;;;;101.97;48.00;;;-0.50;92.10;;;;;;5130421;27;20026;-67
2021/01/13 02:16:05;;;;;;;;;;;-0.60;92.40;;;;;;5130899;27;20706;-66
2021/01/13 02:18:35;;;;;;;88.43;41.28;;;-0.50;92.60;;;;;;5130779;27;19998;-66
2021/01/13 02:21:03;;;;;;;83.53;41.42;;;-0.60;92.60;;;;;;5130720;27;20020;-66
2021/01/13 02:23:35;;;;;;;84.93;42.95;;;-0.50;92.70;;;;;;5130157;27;20106;-66
2021/01/13 02:26:38;;;;;;;90.38;42.47;;;-0.50;92.70;;;;;;5129979;27;20039;-67
2021/01/13 02:29:10;;;;;;;94.95;43.20;;;-0.50;92.60;;;;;;5130216;27;20084;-66
2021/01/13 02:31:40;;;;;;;73.10;38.72;;;-0.50;92.60;;;;;;5130226;27;20023;-66
2021/01/13 02:34:38;;;;;;;92.57;44.67;;;-0.40;92.60;;;;;;5130789;27;20519;-66
2021/01/13 02:37:25;;;;;;;81.88;41.40;;;-0.40;92.60;;;;;;5065162;27;20395;-67
2021/01/13 02:39:52;;;;;;;86.53;42.35;;;-0.40;92.50;;;;;;5130336;27;20031;-65
2021/01/13 02:42:24;;;;;;;81.05;40.13;;;-0.40;92.50;;;;;;5130440;27;20027;-66
2021/01/13 02:45:12;;;;;;;82.68;40.50;;;-0.40;92.50;;;;;;5129853;27;20647;-67
2021/01/13 02:48:02;;;;;;;71.97;36.78;;;-0.30;92.50;;;;;;5130322;27;20418;-66
2021/01/13 02:50:53;;;;;;;82.22;39.95;;;-0.30;92.40;;;;;;5130362;27;20449;-66
2021/01/13 02:53:22;;;;;;;67.72;33.30;;;-0.30;92.30;;;;;;5130126;27;20026;-66
2021/01/13 02:55:47;;;;;;;79.60;37.70;;;-0.30;92.20;;;;;;5129766;27;20374;-67
2021/01/13 02:58:18;;;;;;;;;;;-0.30;92.30;;;;;;5129897;27;20556;-67
2021/01/13 03:00:44;;;;;;;88.55;41.25;;;-0.30;92.60;;;;;;5129962;27;19930;-66
2021/01/13 03:03:10;;;;;;;;;;;-0.30;92.30;;;;;;5129984;27;20403;-67
2021/01/13 03:05:35;;;;;;;90.75;42.92;;;-0.30;92.30;;;;;;5129693;27;19923;-66
2021/01/13 03:08:06;;;;;;;;;;;-0.30;92.40;;;;;;5130239;27;20019;-66
2021/01/13 03:10:37;;;;;;;78.47;37.80;;;-0.30;92.40;;;;;;5128625;27;19903;-66
2021/01/13 03:13:05;;;;;;;70.00;34.63;;;-0.30;92.40;;;;;;5129638;27;20081;-65
2021/01/13 03:15:33;;;;;;;75.20;38.47;;;-0.30;92.30;;;;;;5129849;27;20031;-66
2021/01/13 03:18:05;;;;;;;72.70;37.67;;;-0.30;92.30;;;;;;5129650;27;20067;-66
2021/01/13 03:20:50;;;;;;;84.57;40.17;;;-0.30;92.30;;;;;;5129844;27;20030;-65
2021/01/13 03:23:24;;;;;;;71.40;34.45;;;-0.30;92.30;;;;;;5129664;27;20027;-67
2021/01/13 03:26:04;;;;;;;96.57;46.30;;;-0.30;92.30;;;;;;5128939;27;20039;-66
2021/01/13 03:28:35;;;;;;;93.13;44.72;;;-0.30;92.20;;;;;;5129012;27;20106;-67
2021/01/13 03:31:03;;;;;;;84.38;44.03;;;-0.20;92.50;;;;;;5129536;27;20038;-65
2021/01/13 03:34:06;;;;;;;81.03;40.13;;;-0.30;92.20;;;;;;5129536;27;20054;-66
2021/01/13 03:36:37;;;;;;;73.97;38.38;;;-0.30;92.20;;;;;;5129048;27;20039;-66
2021/01/13 03:39:07;;;;;;;78.82;40.45;;;-0.30;92.20;;;;;;5129306;27;20043;-66
2021/01/13 03:41:55;;;;;;;90.55;45.55;;;-0.20;92.10;;;;;;5128707;27;20471;-66
2021/01/13 03:44:29;;;;;;;96.07;47.13;;;-0.20;92.10;;;;;;5128721;27;20027;-65
2021/01/13 03:46:56;;;;;;;91.85;44.70;;;-0.20;92.20;;;;;;5129106;27;20035;-66
2021/01/13 03:49:27;;;;;;;94.55;46.15;;;-0.30;92.20;;;;;;5129117;27;20019;-66
2021/01/13 03:52:07;;;;;;;89.00;45.50;;;-0.30;92.30;;;;;;5128716;27;20245;-66
2021/01/13 03:54:35;;;;;;;78.25;38.60;;;-0.30;92.30;;;;;;5128922;27;20627;-66
2021/01/13 03:57:07;;;;;;;76.28;40.03;;;-0.30;92.50;;;;;;5128302;27;20376;-66
2021/01/13 03:59:51;;;;;;;79.32;40.42;;;-0.20;92.60;;;;;;5128550;27;20023;-66
2021/01/13 04:02:22;;;;;;;75.40;40.05;;;-0.20;92.70;;;;;;5128778;27;20023;-66
2021/01/13 04:04:57;;;;;;;78.15;37.45;;;-0.20;92.60;;;;;;5110027;27;20034;-65
2021/01/13 04:07:24;;;;;;;68.43;34.58;;;-0.20;92.60;;;;;;5128850;27;20046;-65
2021/01/13 04:09:52;;;;;;;72.40;35.75;;;-0.10;92.70;;;;;;5128916;27;20054;-69
2021/01/13 04:12:21;;;;;;;80.45;37.70;;;-0.10;92.80;;;;;;5128268;27;20483;-67
2021/01/13 04:14:55;;;;;;;70.90;36.13;;;0.00;92.80;;;;;;5128770;27;20543;-67
2021/01/13 04:17:23;;;;;;;65.07;35.08;;;0.00;92.80;;;;;;5128580;27;20034;-68
2021/01/13 04:19:50;;;;;;;71.68;37.50;;;0.00;92.80;;;;;;5128848;27;20515;-67
2021/01/13 04:22:17;;;;;;;64.95;33.83;;;0.00;92.70;;;;;;5128745;27;20130;-68
2021/01/13 04:24:45;;;;;;;70.82;36.30;;;0.00;92.70;;;;;;5128037;27;20039;-68
2021/01/13 04:27:13;;;;;;;68.75;34.92;;;0.00;92.60;;;;;;5128103;27;20067;-67
2021/01/13 04:29:39;;;;;;;69.43;33.33;;;-0.10;92.50;;;;;;5128309;27;20023;-68
2021/01/13 04:32:04;;;;;;;;;;;-0.20;92.40;;;;;;5128547;27;20079;-68
2021/01/13 04:34:31;;;;;;;58.50;30.13;;;-0.30;92.30;;;;;;5128144;27;19933;-67
2021/01/13 04:36:57;;;;;;;47.22;25.15;;;-0.40;92.30;;;;;;5127782;27;20031;-68
2021/01/13 04:39:25;;;;;;;41.80;23.50;;;-0.50;92.50;;;;;;5127878;27;20445;-68
2021/01/13 04:42:05;;;;;;;42.60;22.40;;;-0.60;92.70;;;;;;5127554;27;20035;-67
2021/01/13 04:44:55;;;;;;;46.10;24.92;;;-0.70;92.90;;;;;;5127924;27;20053;-67
2021/01/13 04:47:47;;;;;;;46.97;25.25;;;-0.70;93.00;;;;;;5113727;27;20085;-66
2021/01/13 04:50:17;;;;;;;40.70;22.38;;;-0.80;93.00;;;;;;5127556;27;20031;-65
2021/01/13 04:52:42;;;;;;;35.60;18.92;;;-0.90;93.00;;;;;;5127808;27;20368;-66
2021/01/13 04:55:20;;;;;;;;;;;-0.90;93.00;;;;;;5127728;27;20030;-65
2021/01/13 04:58:07;;;;;;;35.85;19.42;;;-0.90;93.20;;;;;;5127540;27;19907;-66
2021/01/13 05:00:42;;;;;;;36.50;19.80;;;-0.90;93.30;;;;;;5127387;27;20618;-66
2021/01/13 05:03:41;;;;;;;34.80;19.48;;;-0.80;93.50;;;;;;5127795;27;20031;-66
2021/01/13 05:06:24;;;;;;;35.25;20.52;;;-0.90;93.30;;;;;;5127594;27;20046;-66
2021/01/13 05:09:06;;;;;;;34.75;19.98;;;-0.80;93.30;;;;;;5127610;27;20030;-66
2021/01/13 05:11:46;;;;;;;37.22;19.02;;;-0.80;93.30;;;;;;5126895;27;20025;-66
2021/01/13 05:14:13;;;;;;;35.92;21.27;;;-0.70;93.30;;;;;;5127498;27;20076;-67
2021/01/13 05:16:48;;;;;;;39.63;22.08;;;-0.70;93.40;;;;;;5127219;27;20050;-66
2021/01/13 05:19:29;;;;;;;37.28;20.13;;;-0.70;93.50;;;;;;5127004;27;20034;-67
2021/01/13 05:22:00;;;;;;;35.95;19.77;;;-0.70;93.50;;;;;;5127168;27;20034;-66
2021/01/13 05:24:27;;;;;;;35.35;19.08;;;-0.70;93.40;;;;;;5108496;27;20557;-66
2021/01/13 05:27:01;;;;;;;35.40;19.08;;;-0.70;93.40;;;;;;5127391;27;20472;-66
2021/01/13 05:29:27;;;;;;;31.95;18.25;;;-0.80;93.20;;;;;;5108960;27;20038;-67
2021/01/13 05:31:58;;;;;;;;;;;-0.80;93.10;;;;;;5127159;27;20023;-67
2021/01/13 05:34:25;;;;;;;30.67;17.50;;;-0.80;92.80;;;;;;5127320;27;19911;-67
2021/01/13 05:37:18;;;;;;;31.67;17.70;;;-0.90;92.70;;;;;;5126987;27;20529;-66
2021/01/13 05:39:50;;;;;;;37.15;18.33;;;-1.00;92.50;;;;;;5126516;27;20090;-67
2021/01/13 05:42:17;;;;;;;32.05;17.25;;;-1.00;92.50;;;;;;5126663;28;20023;-66
2021/01/13 05:44:44;;;;;;;33.63;17.92;;;-1.10;92.60;;;;;;5125852;28;20143;-65
2021/01/13 05:47:25;;;;;;;33.38;18.45;;;-1.20;92.70;;;;;;5125310;28;20038;-65
2021/01/13 05:49:54;;;;;;;32.45;18.23;;;-1.20;92.80;;;;;;5126233;28;20079;-66
2021/01/13 05:52:20;;;;;;;33.95;18.42;;;-1.20;92.90;;;;;;5127031;28;20949;-67
2021/01/13 05:54:46;;;;;;;;;;;-1.20;92.90;;;;;;5127300;28;20031;-66
2021/01/13 05:57:16;;;;;;;30.90;16.85;;;-1.30;93.00;;;;;;5126421;28;19911;-66
2021/01/13 05:59:45;;;;;;;29.85;16.90;;;-1.30;93.00;;;;;;5127019;28;20037;-66
2021/01/13 06:02:16;;;;;;;28.75;16.90;;;-1.30;93.10;;;;;;5127172;28;20094;-66
2021/01/13 06:04:46;;;;;;;34.50;19.60;;;-1.30;93.40;;;;;;5125761;28;20026;-65
2021/01/13 06:07:22;;;;;;;31.23;17.23;;;-1.30;93.10;;;;;;5126936;28;20096;-66
2021/01/13 06:09:55;;;;;;;30.15;16.95;;;-1.30;93.00;;;;;;5125961;28;20042;-65
2021/01/13 06:12:25;;;;;;;29.60;15.60;;;-1.40;92.90;;;;;;5108411;28;20031;-66
2021/01/13 06:14:52;;;;;;;29.73;15.63;;;-1.40;92.90;;;;;;5126499;28;20055;-66
2021/01/13 06:17:20;;;;;;;30.33;15.00;;;-1.50;92.80;;;;;;5126630;28;20061;-66
2021/01/13 06:19:50;;;;;;;27.33;13.88;;;-1.40;92.70;;;;;;5126889;28;20034;-66
2021/01/13 06:22:16;;;;;;;28.38;13.65;;;-1.50;92.60;;;;;;5126619;28;20575;-66
2021/01/13 06:24:42;;;;;;;24.55;10.65;;;-1.50;92.50;;;;;;5126492;28;20054;-66
2021/01/13 06:27:19;;;;;;;24.05;12.63;;;-1.40;92.60;;;;;;5126278;28;20036;-66
2021/01/13 06:29:52;;;;;;;23.23;13.25;;;-1.30;92.50;;;;;;5126667;28;20035;-64
2021/01/13 06:32:18;;;;;;;23.02;11.88;;;-1.30;92.40;;;;;;5126694;28;20142;-65
2021/01/13 06:35:03;;;;;;;28.50;12.15;;;-1.30;92.20;;;;;;5126279;28;20237;-66
2021/01/13 06:37:44;;;;;;;29.65;11.90;;;-1.30;92.00;;;;;;5126121;28;20045;-66
2021/01/13 06:40:15;;;;;;;23.58;11.05;;;-1.20;91.80;;;;;;5126266;28;20024;-66
2021/01/13 06:42:41;;;;;;;28.08;11.63;;;-1.10;91.60;;;;;;5126481;28;20490;-66
2021/01/13 06:45:10;;;;;;;;;;;-1.10;91.40;;;;;;5128964;27;20096;-66
2021/01/13 06:47:52;;;;;;;34.58;13.95;;;-1.00;91.30;;;;;;5129973;27;19907;-67
2021/01/13 06:50:42;;;;;;;72.15;23.95;;;-0.90;91.10;;;;;;5129874;27;20019;-66
2021/01/13 06:53:09;;;;;;;62.83;21.38;;;-0.90;90.90;;;;;;5130291;27;20113;-67
2021/01/13 06:55:36;;;;;;;56.08;15.98;;;-0.90;90.90;;;;;;5129264;27;20031;-66
2021/01/13 06:58:15;;;;;;;41.92;13.35;;;-0.80;90.80;;;;;;5130471;27;20605;-65
2021/01/13 07:00:42;;;;;;;28.17;11.43;;;-0.80;90.70;;;;;;5129832;27;20023;-67
2021/01/13 07:03:38;;;;;;;23.58;9.75;;;-0.80;90.70;;;;;;5130173;27;20192;-66
2021/01/13 07:06:10;;;;;;;40.03;15.23;;;-0.80;90.60;;;;;;5107969;27;20082;-66
2021/01/13 07:08:36;;;;;;;36.70;16.17;;;-0.80;90.60;;;;;;5130059;27;20023;-66
2021/01/13 07:11:10;;;;;;;174.50;73.57;;;-0.70;90.50;;;;;;5129431;27;20045;-65
2021/01/13 07:13:41;;;;;;;37.67;19.83;;;-0.70;90.50;;;;;;5129667;27;20076;-66
2021/01/13 07:16:08;;;;;;;199.43;94.53;;;-0.50;90.20;;;;;;5129784;27;20078;-67
2021/01/13 07:18:35;;;;;;;75.63;37.67;;;-0.10;89.10;;;;;;5128963;27;20031;-67
2021/01/13 07:21:08;;;;;;;93.13;46.25;;;0.30;86.80;;;;;;5129547;27;20030;-66
2021/01/13 07:23:35;;;;;;;25.75;13.88;;;0.70;83.90;;;;;;5129064;27;20098;-67
2021/01/13 07:26:01;;;;;;;18.98;10.63;;;1.00;82.30;;;;;;5128978;27;20419;-67
2021/01/13 07:28:28;;;;;;;;;;;1.30;81.60;;;;;;5130109;27;20068;-67
2021/01/13 07:30:54;;;;;;;30.15;19.05;;;1.60;79.50;;;;;;5129451;27;20367;-67
2021/01/13 07:33:20;;;;;;;;;;;1.80;77.50;;;;;;5129920;27;20045;-66
2021/01/13 07:35:49;;;;;;;41.90;24.17;;;1.90;77.80;;;;;;5129046;27;19973;-66
2021/01/13 07:38:17;;;;;;;33.90;17.85;;;1.90;76.50;;;;;;5129349;27;20023;-68
2021/01/13 07:40:57;;;;;;;30.60;15.35;;;1.90;77.00;;;;;;5129276;27;20034;-66
2021/01/13 07:43:54;;;;;;;23.00;12.50;;;1.90;77.50;;;;;;5129025;27;20487;-66
2021/01/13 07:46:31;;;;;;;20.42;10.75;;;2.00;77.30;;;;;;5128865;27;20042;-67
2021/01/13 07:49:15;;;;;;;15.88;8.95;;;2.20;75.70;;;;;;5129660;27;20118;-67
2021/01/13 07:51:55;;;;;;;16.13;7.32;;;2.50;74.30;;;;;;5129195;27;20031;-66
2021/01/13 07:54:35;;;;;;;12.95;6.05;;;2.70;73.50;;;;;;5128801;27;20015;-66
2021/01/13 07:57:02;;;;;;;19.70;6.25;;;2.80;72.30;;;;;;5128479;27;20023;-66
2021/01/13 07:59:36;;;;;;;17.83;7.90;;;3.00;71.50;;;;;;5128663;27;20031;-67
2021/01/13 08:02:40;;;;;;;28.08;13.18;;;3.20;70.20;;;;;;5128937;27;20023;-67
2021/01/13 08:05:21;;;;;;;29.23;9.55;;;3.60;69.30;;;;;;5128610;27;20027;-64
2021/01/13 08:08:06;;;;;;;10.18;4.85;;;3.90;66.80;;;;;;5128806;27;20034;-66
2021/01/13 08:10:37;;;;;;;10.13;4.43;;;4.10;65.30;;;;;;5128897;27;20372;-66
2021/01/13 08:13:33;;;;;;;11.65;5.15;;;4.30;64.50;;;;;;5128244;27;20054;-66
2021/01/13 08:16:52;;;;;;;14.18;6.10;;;4.60;63.50;;;;;;5128544;27;20029;-66
2021/01/13 08:19:56;;;;;;;9.63;5.03;;;4.60;61.80;;;;;;5024906;28;20038;-66
2021/01/13 08:22:25;;;;;;;10.68;5.32;;;4.90;62.20;;;;;;5025017;28;20390;-66
2021/01/13 08:24:59;;;;;;;10.38;5.15;;;5.10;59.60;;;;;;5101158;27;20495;-67
2021/01/13 08:27:26;;;;;;;11.48;4.53;;;5.10;60.10;;;;;;5128038;27;20124;-67
2021/01/13 08:29:56;;;;;;;10.93;4.45;;;5.10;59.80;;;;;;5109556;27;20023;-66
2021/01/13 08:32:30;;;;;;;12.82;4.60;;;5.30;59.70;;;;;;5128356;27;20031;-67
2021/01/13 08:35:04;;;;;;;11.60;5.40;;;5.60;58.90;;;;;;5128269;27;20031;-66
2021/01/13 08:37:36;;;;;;;14.35;5.22;;;6.00;56.40;;;;;;5127952;27;20015;-66
2021/01/13 08:40:25;;;;;;;6.95;3.78;;;6.20;55.90;;;;;;5109190;27;20027;-67
2021/01/13 08:43:08;;;;;;;6.15;3.63;;;6.50;54.90;;;;;;5128032;27;20481;-66
2021/01/13 08:45:38;;;;;;;6.85;3.03;;;6.80;52.90;;;;;;5127493;27;20042;-67
2021/01/13 08:48:12;;;;;;;6.97;2.65;;;6.90;52.30;;;;;;5128158;27;20050;-66
2021/01/13 08:50:39;;;;;;;5.25;2.70;;;7.10;52.10;;;;;;5127927;27;20499;-67
2021/01/13 08:53:06;;;;;;;5.35;2.85;;;7.20;51.00;;;;;;5127725;27;20072;-67
2021/01/13 08:55:33;;;;;;;7.72;3.17;;;7.20;50.30;;;;;;5127506;27;20096;-66
2021/01/13 08:58:08;;;;;;;5.15;2.65;;;7.00;50.80;;;;;;5127469;27;20031;-66
2021/01/13 09:00:36;;;;;;;7.03;3.58;;;6.70;50.70;;;;;;5127468;27;20050;-67
2021/01/13 09:03:13;;;;;;;6.82;3.33;;;6.50;51.00;;;;;;5127786;27;20027;-66
2021/01/13 09:05:41;;;;;;;12.93;3.22;;;6.00;52.10;;;;;;5127481;27;20035;-66
2021/01/13 09:08:09;;;;;;;7.40;3.97;;;5.70;53.40;;;;;;5126631;27;20035;-65
2021/01/13 09:10:47;;;;;;;8.73;5.22;;;5.50;54.40;;;;;;5127607;27;20458;-67
2021/01/13 09:13:37;;;;;;;6.85;3.00;;;5.30;54.70;;;;;;5127185;27;20027;-67
2021/01/13 09:16:21;;;;;;;7.50;3.40;;;5.10;55.30;;;;;;5115017;27;20127;-67
2021/01/13 09:19:04;;;;;;;6.57;3.00;;;4.90;54.90;;;;;;5127196;27;20038;-67
2021/01/13 09:21:31;;;;;;;6.22;3.13;;;4.60;55.00;;;;;;5127405;27;20023;-67
2021/01/13 09:23:59;;;;;;;8.43;3.53;;;4.60;56.00;;;;;;5126787;27;20110;-67
2021/01/13 09:26:31;;;;;;;4.57;2.20;;;4.50;56.10;;;;;;5127207;27;20035;-66
2021/01/13 09:29:06;;;;;;;9.18;1.85;;;4.40;55.80;;;;;;5108999;27;20175;-66
2021/01/13 09:31:33;;;;;;;5.65;2.60;;;4.40;55.30;;;;;;5127246;27;20029;-65
2021/01/13 09:33:59;;;;;;;4.53;1.85;;;4.40;55.90;;;;;;5126837;27;20023;-67
2021/01/13 09:36:25;;;;;;;;;;;4.50;55.30;;;;;;5127458;27;20451;-67
2021/01/13 09:39:10;;;;;;;5.93;2.03;;;4.40;55.20;;;;;;5126921;27;19946;-66
2021/01/13 09:41:41;;;;;;;5.35;2.08;;;4.40;55.30;;;;;;5127275;27;20019;-65
2021/01/13 09:44:13;;;;;;;6.30;2.10;;;4.30;55.50;;;;;;5126942;28;20036;-67
2021/01/13 09:46:40;;;;;;;2.70;1.30;;;4.20;55.50;;;;;;5127243;28;20092;-66
2021/01/13 09:49:09;;;;;;;7.15;1.65;;;4.10;56.00;;;;;;5127134;28;20031;-65
2021/01/13 09:51:37;;;;;;;2.65;1.15;;;4.10;55.20;;;;;;5108806;28;20043;-66
2021/01/13 09:54:04;;;;;;;4.95;1.48;;;4.00;55.90;;;;;;5126576;28;20023;-66
2021/01/13 09:56:32;;;;;;;6.22;2.13;;;4.10;55.30;;;;;;5127432;28;20715;-65
2021/01/13 09:59:00;;;;;;;4.03;1.30;;;4.00;55.60;;;;;;5126819;28;20085;-65
2021/01/13 10:01:32;;;;;;;3.30;0.85;;;4.10;54.80;;;;;;5126947;28;20033;-66
2021/01/13 10:04:00;;;;;;;5.10;1.48;;;4.10;54.80;;;;;;5126649;28;20027;-66
2021/01/13 10:06:31;;;;;;;2.67;1.23;;;4.10;53.90;;;;;;5126704;28;20039;-67
2021/01/13 10:08:59;;;;;;;5.00;1.55;;;3.90;54.30;;;;;;5126744;28;20399;-66
2021/01/13 10:11:27;;;;;;;4.07;1.83;;;4.00;54.40;;;;;;5126425;28;20491;-66
2021/01/13 10:13:58;;;;;;;6.28;2.15;;;4.00;54.40;;;;;;5126882;28;20019;-66
2021/01/13 10:16:24;;;;;;;5.78;1.90;;;4.00;53.60;;;;;;5126379;28;20023;-66
2021/01/13 10:18:54;;;;;;;;;;;4.00;53.50;;;;;;5128905;27;20088;-66
2021/01/13 10:21:20;;;;;;;6.43;2.22;;;4.00;53.10;;;;;;5130443;27;19904;-66
2021/01/13 10:23:46;;;;;;;;;;;3.90;54.00;;;;;;5130221;27;20027;-67
2021/01/13 10:26:12;;;;;;;6.85;2.92;;;4.00;54.00;;;;;;5130708;27;19915;-67
2021/01/13 10:28:38;;;;;;;4.72;1.73;;;4.00;52.80;;;;;;5130600;27;20046;-65
2021/01/13 10:31:06;;;;;;;9.05;2.30;;;4.00;52.60;;;;;;5130288;27;20030;-66
2021/01/13 10:33:47;;;;;;;5.20;1.92;;;4.00;53.10;;;;;;5130698;27;20041;-67
2021/01/13 10:36:33;;;;;;;5.78;1.88;;;4.00;53.20;;;;;;5130597;27;20027;-67
2021/01/13 10:39:00;;;;;;;5.25;1.17;;;3.90;53.20;;;;;;5130631;27;20031;-66
2021/01/13 10:41:36;;;;;;;8.88;2.65;;;3.90;54.10;;;;;;5130056;27;20023;-67
2021/01/13 10:44:12;;;;;;;10.55;3.30;;;3.90;53.90;;;;;;5112021;27;20027;-66
2021/01/13 10:46:43;;;;;;;5.88;1.80;;;3.90;53.10;;;;;;5129884;27;20042;-66
2021/01/13 10:49:19;;;;;;;8.95;2.80;;;3.80;53.40;;;;;;5130236;27;20027;-67
2021/01/13 10:51:52;;;;;;;2.78;1.00;;;3.80;53.40;;;;;;5129925;27;20399;-67
2021/01/13 10:54:21;;;;;;;12.13;4.75;;;3.90;53.20;;;;;;5130208;27;20423;-66
2021/01/13 10:56:54;;;;;;;9.05;3.53;;;3.90;53.00;;;;;;5130159;27;20083;-66
2021/01/13 10:59:21;;;;;;;12.63;4.20;;;3.80;53.50;;;;;;5111654;27;20019;-65
2021/01/13 11:01:49;;;;;;;12.23;3.70;;;3.80;54.20;;;;;;5129590;27;20023;-66
2021/01/13 11:04:45;;;;;;;7.50;2.58;;;3.90;53.80;;;;;;5130142;27;20023;-67
2021/01/13 11:07:16;;;;;;;4.82;1.60;;;3.90;53.10;;;;;;5108253;27;20073;-67
2021/01/13 11:09:49;;;;;;;13.00;3.67;;;4.00;53.30;;;;;;5129662;27;20020;-67
2021/01/13 11:12:21;;;;;;;13.95;4.88;;;4.00;52.70;;;;;;5129982;27;20506;-67
2021/01/13 11:14:49;;;;;;;4.70;1.77;;;3.90;53.70;;;;;;5129869;27;20069;-66
2021/01/13 11:17:25;;;;;;;13.23;5.15;;;3.90;53.50;;;;;;5129632;27;20031;-67
2021/01/13 11:19:53;;;;;;;8.75;3.25;;;3.90;53.70;;;;;;5129922;27;20015;-66
2021/01/13 11:22:44;;;;;;;6.97;2.83;;;3.80;54.30;;;;;;5129672;27;20080;-66
2021/01/13 11:25:37;;;;;;;10.95;3.40;;;4.00;54.20;;;;;;5114905;27;20043;-66
2021/01/13 11:28:04;;;;;;;12.95;3.67;;;4.00;55.10;;;;;;5108802;28;20116;-66
2021/01/13 11:30:32;;;;;;;7.57;2.33;;;3.90;55.00;;;;;;5108654;28;20027;-67
2021/01/13 11:33:01;;;;;;;5.25;1.30;;;4.00;54.90;;;;;;5108923;28;20036;-66
2021/01/13 11:35:29;;;;;;;3.90;0.85;;;3.90;54.60;;;;;;5108812;28;20019;-65
2021/01/13 11:38:33;;;;;;;5.13;1.17;;;4.00;53.90;;;;;;5108322;28;20024;-66
2021/01/13 11:41:17;;;;;;;5.75;1.70;;;4.00;54.80;;;;;;5108996;28;20036;-66
2021/01/13 11:43:54;;;;;;;6.22;1.00;;;4.00;55.10;;;;;;5108335;28;20020;-66
2021/01/13 11:46:37;;;;;;;5.38;1.20;;;3.90;55.80;;;;;;5108687;28;20142;-66
2021/01/13 11:49:18;;;;;;;2.53;0.60;;;3.80;56.80;;;;;;5108306;28;20036;-66
2021/01/13 11:51:48;;;;;;;2.97;0.80;;;3.90;55.60;;;;;;5108240;28;20111;-67
2021/01/13 11:54:27;;;;;;;5.82;0.80;;;3.90;55.90;;;;;;5108455;28;20488;-65
2021/01/13 11:56:53;;;;;;;4.90;0.63;;;4.00;55.50;;;;;;5108195;28;20027;-66
2021/01/13 11:59:26;;;;;;;4.20;1.00;;;4.00;55.10;;;;;;5108549;28;20048;-66
2021/01/13 12:01:53;;;;;;;2.72;0.60;;;4.00;55.60;;;;;;5108421;28;20108;-66
2021/01/13 12:04:19;;;;;;;3.47;0.98;;;4.00;55.40;;;;;;5108435;28;20031;-66
2021/01/13 12:06:54;;;;;;;;;;;3.90;56.00;;;;;;5108131;28;20039;-66
2021/01/13 12:09:20;;;;;;;4.60;1.02;;;3.90;56.10;;;;;;5107996;28;19907;-66
2021/01/13 12:11:46;;;;;;;;;;;3.90;56.60;;;;;;5108343;28;20050;-66
2021/01/13 12:14:12;;;;;;;1.77;0.60;;;3.80;56.60;;;;;;5108045;28;20052;-65
2021/01/13 12:16:37;;;;;;;6.28;0.70;;;3.90;56.80;;;;;;5107398;28;20038;-66
2021/01/13 12:19:03;;;;;;;;;;;4.00;56.10;;;;;;5108310;28;20031;-66
2021/01/13 12:21:29;;;;;;;4.53;0.70;;;4.00;56.10;;;;;;5107278;28;20345;-64
2021/01/13 12:23:55;;;;;;;;;;;4.00;57.30;;;;;;5111893;27;20403;-65
2021/01/13 12:26:24;;;;;;;4.10;0.55;;;4.00;57.10;;;;;;5127917;27;19995;-66
2021/01/13 12:29:18;;;;;;;2.55;0.70;;;3.90;57.60;;;;;;5128062;27;20051;-66
2021/01/13 12:31:48;;;;;;;2.90;0.80;;;3.80;58.80;;;;;;5114910;27;20043;-66
2021/01/13 12:34:32;;;;;;;4.05;1.20;;;3.80;58.10;;;;;;5127850;27;20019;-66
2021/01/13 12:37:04;;;;;;;5.15;0.45;;;3.80;57.50;;;;;;5127608;27;20078;-66
2021/01/13 12:39:32;;;;;;;2.22;0.65;;;3.80;57.70;;;;;;5128031;27;20027;-65
2021/01/13 12:41:59;;;;;;;2.83;0.70;;;3.80;58.30;;;;;;5127140;27;20038;-65
2021/01/13 12:44:26;;;;;;;4.05;0.80;;;3.80;58.30;;;;;;5127660;27;20223;-65
2021/01/13 12:46:57;;;;;;;2.08;0.60;;;3.80;58.90;;;;;;5128095;27;20138;-66
2021/01/13 12:49:26;;;;;;;7.82;1.65;;;3.80;57.40;;;;;;5127896;27;20403;-66
2021/01/13 12:51:56;;;;;;;4.03;1.52;;;3.80;58.00;;;;;;5127659;27;20031;-65
2021/01/13 12:54:23;;;;;;;11.95;1.00;;;3.80;58.40;;;;;;5127859;27;20035;-66
2021/01/13 12:56:49;;;;;;;6.25;1.05;;;3.70;59.00;;;;;;5127919;27;20034;-64
2021/01/13 12:59:15;;;;;;;;;;;3.70;59.10;;;;;;5128417;27;20028;-65
2021/01/13 13:01:42;;;;;;;3.60;0.90;;;3.70;59.80;;;;;;5127200;27;20208;-66
2021/01/13 13:04:08;;;;;;;4.30;1.77;;;3.70;59.70;;;;;;5127761;27;20523;-64
2021/01/13 13:06:35;;;;;;;;;;;3.60;59.80;;;;;;5127624;27;20041;-66
2021/01/13 13:09:12;;;;;;;3.55;0.90;;;3.60;60.20;;;;;;5127628;27;19907;-66
2021/01/13 13:11:38;;;;;;;4.82;1.52;;;3.60;59.60;;;;;;5127256;27;20027;-66
2021/01/13 13:14:05;;;;;;;4.75;0.50;;;3.70;60.20;;;;;;5127721;27;20023;-66
2021/01/13 13:16:31;;;;;;;4.88;1.20;;;3.70;60.10;;;;;;5127642;27;20068;-66